createdAt,value
2022-11-10T00:00:13.104Z,87.00
2022-11-10T00:03:04.455Z,87.10
2022-11-10T00:05:51.891Z,87.30
2022-11-10T00:08:39.634Z,87.20
2022-11-10T00:11:27.091Z,87.00
2022-11-10T00:14:31.910Z,87.00
2022-11-10T00:17:19.390Z,87.20
2022-11-10T00:20:09.444Z,87.40
2022-11-10T00:22:57.346Z,87.70
2022-11-10T00:25:44.629Z,87.90
2022-11-10T00:28:33.383Z,88.20
2022-11-10T00:31:21.220Z,88.30
2022-11-10T00:34:13.584Z,88.40
2022-11-10T00:37:02.613Z,88.10
2022-11-10T00:39:50.396Z,88.10
2022-11-10T00:42:37.998Z,88.10
2022-11-10T00:45:25.317Z,88.30
2022-11-10T00:48:12.544Z,88.40
2022-11-10T00:50:59.980Z,88.50
2022-11-10T00:53:48.719Z,88.70
2022-11-10T00:56:36.252Z,88.80
2022-11-10T00:59:23.477Z,88.80
2022-11-10T01:02:10.829Z,88.60
2022-11-10T01:04:58.068Z,88.50
2022-11-10T01:07:45.374Z,88.40
2022-11-10T01:10:34.249Z,88.60
2022-11-10T01:13:21.883Z,88.80
2022-11-10T01:16:11.270Z,88.80
2022-11-10T01:19:00.397Z,88.80
2022-11-10T01:21:48.076Z,89.00
2022-11-10T01:24:35.494Z,89.00
2022-11-10T01:27:24.345Z,88.50
2022-11-10T01:30:12.992Z,88.20
2022-11-10T01:33:00.719Z,87.90
2022-11-10T01:35:48.087Z,87.90
2022-11-10T01:38:37.684Z,88.50
2022-11-10T01:41:25.690Z,88.90
2022-11-10T01:44:17.529Z,89.30
2022-11-10T01:47:04.943Z,89.60
2022-11-10T01:49:52.454Z,90.00
2022-11-10T01:52:40.837Z,90.00
2022-11-10T01:55:28.909Z,90.00
2022-11-10T01:58:19.082Z,90.00
2022-11-10T02:01:08.532Z,89.50
2022-11-10T02:04:00.360Z,88.70
2022-11-10T02:06:49.395Z,88.30
2022-11-10T02:09:36.888Z,88.40
2022-11-10T02:12:38.195Z,88.30
2022-11-10T02:15:25.715Z,88.30
2022-11-10T02:18:14.697Z,88.00
2022-11-10T02:21:05.938Z,87.90
2022-11-10T02:23:54.980Z,87.70
2022-11-10T02:26:46.973Z,87.40
2022-11-10T02:29:35.263Z,87.40
2022-11-10T02:32:22.744Z,87.70
2022-11-10T02:35:11.125Z,88.20
2022-11-10T02:37:59.822Z,88.60
2022-11-10T02:40:47.545Z,88.90
2022-11-10T02:43:35.222Z,88.60
2022-11-10T02:46:22.431Z,87.90
2022-11-10T02:49:09.661Z,87.50
2022-11-10T02:51:57.092Z,87.40
2022-11-10T02:54:45.720Z,87.70
2022-11-10T02:57:33.489Z,88.00
2022-11-10T03:00:21.761Z,89.10
2022-11-10T03:03:09.170Z,88.90
2022-11-10T03:05:56.406Z,89.30
2022-11-10T03:08:43.739Z,89.00
2022-11-10T03:11:32.783Z,88.80
2022-11-10T03:14:20.429Z,88.40
2022-11-10T03:17:07.542Z,88.70
2022-11-10T03:19:54.836Z,89.00
2022-11-10T03:22:42.026Z,89.30
2022-11-10T03:25:29.640Z,89.50
2022-11-10T03:28:18.549Z,89.80
2022-11-10T03:31:06.361Z,90.00
2022-11-10T03:33:53.679Z,90.00
2022-11-10T03:36:41.225Z,90.20
2022-11-10T03:39:28.819Z,90.40
2022-11-10T03:42:16.059Z,90.50
2022-11-10T03:45:05.284Z,90.40
2022-11-10T03:47:53.216Z,90.20
2022-11-10T03:50:40.710Z,89.80
2022-11-10T03:53:27.922Z,89.70
2022-11-10T03:56:15.463Z,89.40
2022-11-10T03:59:02.696Z,89.50
2022-11-10T04:01:51.663Z,89.50
2022-11-10T04:04:56.624Z,89.70
2022-11-10T04:08:01.349Z,89.90
2022-11-10T04:10:51.177Z,90.00
2022-11-10T04:13:55.867Z,90.20
2022-11-10T04:16:43.415Z,90.30
2022-11-10T04:19:33.116Z,90.40
2022-11-10T04:22:40.806Z,90.60
2022-11-10T04:25:28.585Z,90.80
2022-11-10T04:28:16.008Z,90.90
2022-11-10T04:31:03.283Z,91.10
2022-11-10T04:33:51.579Z,91.20
2022-11-10T04:36:43.280Z,91.40
2022-11-10T04:39:30.745Z,91.50
2022-11-10T04:42:18.337Z,91.60
2022-11-10T04:45:06.064Z,91.70
2022-11-10T04:47:53.445Z,91.80
2022-11-10T04:50:41.044Z,91.80
2022-11-10T04:53:29.939Z,91.80
2022-11-10T04:56:17.731Z,91.90
2022-11-10T04:59:05.227Z,91.90
2022-11-10T05:01:52.955Z,91.90
2022-11-10T05:04:40.187Z,91.80
2022-11-10T05:07:27.542Z,91.80
2022-11-10T05:10:17.743Z,91.80
2022-11-10T05:13:06.881Z,91.80
2022-11-10T05:15:54.229Z,91.90
2022-11-10T05:18:41.753Z,91.90
2022-11-10T05:21:29.312Z,92.00
2022-11-10T05:24:16.820Z,92.00
2022-11-10T05:27:05.456Z,91.80
2022-11-10T05:29:53.008Z,92.10
2022-11-10T05:32:40.326Z,92.10
2022-11-10T05:35:27.624Z,92.20
2022-11-10T05:38:14.789Z,92.20
2022-11-10T05:41:02.447Z,92.60
2022-11-10T05:43:51.097Z,92.30
2022-11-10T05:46:38.179Z,92.40
2022-11-10T05:49:27.325Z,92.50
2022-11-10T05:52:15.469Z,92.60
2022-11-10T05:55:02.877Z,92.70
2022-11-10T05:57:52.017Z,92.90
2022-11-10T06:00:41.121Z,93.00
2022-11-10T06:03:28.692Z,93.10
2022-11-10T06:06:15.873Z,93.20
2022-11-10T06:09:06.315Z,93.30
2022-11-10T06:11:53.380Z,93.40
2022-11-10T06:14:40.967Z,93.60
2022-11-10T06:17:29.767Z,93.80
2022-11-10T06:20:18.464Z,94.00
2022-11-10T06:23:08.045Z,94.20
2022-11-10T06:25:55.408Z,94.30
2022-11-10T06:28:42.354Z,94.30
2022-11-10T06:31:29.626Z,94.40
2022-11-10T06:34:18.293Z,94.50
2022-11-10T06:37:05.756Z,94.60
2022-11-10T06:39:53.436Z,94.60
2022-11-10T06:42:40.963Z,94.60
2022-11-10T06:45:29.396Z,94.70
2022-11-10T06:48:17.290Z,94.70
2022-11-10T06:51:05.975Z,94.60
2022-11-10T06:53:53.706Z,94.60
2022-11-10T06:56:40.797Z,94.60
2022-11-10T06:59:28.115Z,94.70
2022-11-10T07:02:16.681Z,94.80
2022-11-10T07:05:04.521Z,94.80
2022-11-10T07:07:53.370Z,94.80
2022-11-10T07:10:41.052Z,94.80
2022-11-10T07:13:28.520Z,94.80
2022-11-10T07:16:20.404Z,94.60
2022-11-10T07:19:10.743Z,94.00
2022-11-10T07:21:58.166Z,93.60
2022-11-10T07:24:46.849Z,93.50
2022-11-10T07:27:34.338Z,93.30
2022-11-10T07:30:21.838Z,93.30
2022-11-10T07:33:12.986Z,93.20
2022-11-10T07:36:04.411Z,93.00
2022-11-10T07:38:51.934Z,92.80
2022-11-10T07:41:40.529Z,92.70
2022-11-10T07:44:28.351Z,92.50
2022-11-10T07:47:16.982Z,92.20
2022-11-10T07:50:04.473Z,92.10
2022-11-10T07:52:51.747Z,92.00
2022-11-10T07:55:40.323Z,91.90
2022-11-10T07:58:29.860Z,91.70
2022-11-10T08:01:17.188Z,91.50
2022-11-10T08:04:04.401Z,91.20
2022-11-10T08:06:51.425Z,90.80
2022-11-10T08:09:38.341Z,90.50
2022-11-10T08:12:28.577Z,90.30
2022-11-10T08:15:18.352Z,90.20
2022-11-10T08:18:06.435Z,89.80
2022-11-10T08:20:53.628Z,89.20
2022-11-10T08:23:41.401Z,88.40
2022-11-10T08:26:28.542Z,87.80
2022-11-10T08:29:15.602Z,87.60
2022-11-10T08:32:04.168Z,87.00
2022-11-10T08:34:51.498Z,84.10
2022-11-10T08:37:38.360Z,79.20
2022-11-10T08:40:27.896Z,73.90
2022-11-10T08:43:15.840Z,68.40
2022-11-10T08:46:03.151Z,64.20
2022-11-10T08:48:51.559Z,61.10
2022-11-10T08:51:39.308Z,57.80
2022-11-10T08:54:26.354Z,55.50
2022-11-10T08:57:13.280Z,52.70
2022-11-10T09:00:00.200Z,50.40
2022-11-10T09:02:47.153Z,49.40
2022-11-10T09:05:36.061Z,48.30
2022-11-10T09:08:23.078Z,47.30
2022-11-10T09:11:10.072Z,46.10
2022-11-10T09:13:57.153Z,45.10
2022-11-10T09:16:44.086Z,44.60
2022-11-10T09:19:31.048Z,44.00
2022-11-10T09:22:19.481Z,43.00
2022-11-10T09:25:06.947Z,42.10
2022-11-10T09:27:53.707Z,41.60
2022-11-10T09:30:40.670Z,41.00
2022-11-10T09:33:27.600Z,40.30
2022-11-10T09:36:14.685Z,39.80
2022-11-10T09:39:03.028Z,39.40
2022-11-10T09:41:50.500Z,38.60
2022-11-10T09:44:39.795Z,37.90
2022-11-10T09:47:58.465Z,37.50
2022-11-10T09:50:41.326Z,36.80
2022-11-10T09:53:30.865Z,36.60
2022-11-10T09:56:21.764Z,35.40
2022-11-10T09:59:17.727Z,34.50
2022-11-10T10:02:06.112Z,34.40
2022-11-10T10:05:08.008Z,34.50
2022-11-10T10:07:59.778Z,33.90
2022-11-10T10:10:49.499Z,33.70
2022-11-10T10:13:52.176Z,33.50
2022-11-10T10:16:44.827Z,33.20
2022-11-10T10:19:36.899Z,33.20
2022-11-10T10:22:38.689Z,33.00
2022-11-10T10:25:27.127Z,32.60
2022-11-10T10:28:17.871Z,31.70
2022-11-10T10:31:14.956Z,32.10
2022-11-10T10:34:03.517Z,32.10
2022-11-10T10:36:50.857Z,32.20
2022-11-10T10:39:42.282Z,31.70
2022-11-10T10:42:31.683Z,31.50
2022-11-10T10:45:23.186Z,31.30
2022-11-10T10:48:24.833Z,31.10
2022-11-10T10:51:28.664Z,31.50
2022-11-10T10:54:26.397Z,32.30
2022-11-10T10:57:23.969Z,33.20
2022-11-10T11:00:16.931Z,34.20
2022-11-10T11:03:05.105Z,35.10
2022-11-10T11:06:03.169Z,35.90
2022-11-10T11:08:59.648Z,36.40
2022-11-10T11:12:00.138Z,37.00
2022-11-10T11:14:48.238Z,37.60
2022-11-10T11:17:35.953Z,38.30
2022-11-10T11:20:30.897Z,38.90
2022-11-10T11:23:36.103Z,39.20
2022-11-10T11:26:37.183Z,39.80
2022-11-10T11:29:37.740Z,40.30
2022-11-10T11:33:00.812Z,41.00
2022-11-10T11:35:56.788Z,41.40
2022-11-10T11:38:57.766Z,41.90
2022-11-10T11:41:55.450Z,42.20
2022-11-10T11:45:00.193Z,42.50
2022-11-10T11:48:09.719Z,42.80
2022-11-10T11:51:06.738Z,43.30
2022-11-10T11:54:39.186Z,43.30
2022-11-10T11:57:40.518Z,43.00
2022-11-10T12:00:29.320Z,43.10
2022-11-10T12:03:33.517Z,43.20
2022-11-10T12:06:34.290Z,43.40
2022-11-10T12:09:32.650Z,43.50
2022-11-10T12:12:49.287Z,43.60
2022-11-10T12:15:48.684Z,43.50
2022-11-10T12:18:38.379Z,43.60
2022-11-10T12:21:35.930Z,43.70
2022-11-10T12:24:38.396Z,43.70
2022-11-10T12:27:30.057Z,43.80
2022-11-10T12:30:20.154Z,43.70
2022-11-10T12:33:17.306Z,44.00
2022-11-10T12:36:07.462Z,44.20
2022-11-10T12:39:00.457Z,44.60
2022-11-10T12:41:51.182Z,44.80
2022-11-10T12:44:44.920Z,45.10
2022-11-10T12:47:44.405Z,45.30
2022-11-10T12:50:42.714Z,45.30
2022-11-10T12:53:33.115Z,45.70
2022-11-10T12:56:26.339Z,46.20
2022-11-10T12:59:27.863Z,46.30
2022-11-10T13:02:28.806Z,46.20
2022-11-10T13:05:32.209Z,46.50
2022-11-10T13:08:28.829Z,46.40
2022-11-10T13:11:35.079Z,46.60
2022-11-10T13:14:26.133Z,46.70
2022-11-10T13:17:48.759Z,46.80
2022-11-10T13:20:52.879Z,46.90
2022-11-10T13:24:21.255Z,47.20
2022-11-10T13:27:14.847Z,47.40
2022-11-10T13:30:02.438Z,47.70
2022-11-10T13:32:49.793Z,47.90
2022-11-10T13:35:55.883Z,48.10
2022-11-10T13:38:44.561Z,48.40
2022-11-10T13:41:34.238Z,48.70
2022-11-10T13:44:26.826Z,48.80
2022-11-10T13:47:47.795Z,49.00
2022-11-10T13:50:52.711Z,49.10
2022-11-10T13:53:52.250Z,49.00
2022-11-10T13:57:07.146Z,49.20
2022-11-10T13:59:57.156Z,49.50
2022-11-10T14:02:54.119Z,49.50
2022-11-10T14:06:05.972Z,49.80
2022-11-10T14:08:57.735Z,50.10
2022-11-10T14:11:50.116Z,50.40
2022-11-10T14:14:49.237Z,50.70
2022-11-10T14:17:42.724Z,51.10
2022-11-10T14:20:36.668Z,51.30
2022-11-10T14:23:28.275Z,51.50
2022-11-10T14:26:26.045Z,51.90
2022-11-10T14:29:40.177Z,52.20
2022-11-10T14:32:28.099Z,52.50
2022-11-10T14:35:24.761Z,52.90
2022-11-10T14:38:21.591Z,53.30
2022-11-10T14:41:15.670Z,53.70
2022-11-10T14:44:06.690Z,54.00
2022-11-10T14:46:54.788Z,54.30
2022-11-10T14:49:44.069Z,54.60
2022-11-10T14:52:31.424Z,54.80
2022-11-10T14:55:22.068Z,55.10
2022-11-10T14:58:15.078Z,55.40
2022-11-10T15:01:05.697Z,55.60
2022-11-10T15:03:53.290Z,55.80
2022-11-10T15:06:46.708Z,56.10
2022-11-10T15:09:35.277Z,56.30
2022-11-10T15:12:27.695Z,56.50
2022-11-10T15:15:23.316Z,56.70
2022-11-10T15:18:27.443Z,57.10
2022-11-10T15:21:17.050Z,57.30
2022-11-10T15:24:08.245Z,57.40
2022-11-10T15:26:55.639Z,57.70
2022-11-10T15:29:43.110Z,58.00
2022-11-10T15:32:36.111Z,58.30
2022-11-10T15:35:31.803Z,58.70
2022-11-10T15:38:31.194Z,59.10
2022-11-10T15:41:27.760Z,59.40
2022-11-10T15:44:16.554Z,59.50
2022-11-10T15:47:04.166Z,59.80
2022-11-10T15:49:51.419Z,60.00
2022-11-10T15:52:40.812Z,60.10
2022-11-10T15:55:29.824Z,60.60
2022-11-10T15:58:20.756Z,61.00
2022-11-10T16:01:10.758Z,61.40
2022-11-10T16:03:58.684Z,61.60
2022-11-10T16:06:48.388Z,61.90
2022-11-10T16:09:37.728Z,62.10
2022-11-10T16:12:25.448Z,62.40
2022-11-10T16:15:19.681Z,62.60
2022-11-10T16:18:12.756Z,63.00
2022-11-10T16:21:00.625Z,63.20
2022-11-10T16:23:49.512Z,63.40
2022-11-10T16:26:38.745Z,63.60
2022-11-10T16:29:26.249Z,63.90
2022-11-10T16:32:14.044Z,64.00
2022-11-10T16:35:01.423Z,64.20
2022-11-10T16:37:49.080Z,64.40
2022-11-10T16:40:36.487Z,64.60
2022-11-10T16:43:25.594Z,64.80
2022-11-10T16:46:19.917Z,65.20
2022-11-10T16:49:16.612Z,65.40
2022-11-10T16:52:09.636Z,65.50
2022-11-10T16:54:56.912Z,65.70
2022-11-10T16:57:44.299Z,65.90
2022-11-10T17:00:33.580Z,66.10
2022-11-10T17:03:27.037Z,66.30
2022-11-10T17:06:15.605Z,66.50
2022-11-10T17:09:08.903Z,66.70
2022-11-10T17:11:57.571Z,67.00
2022-11-10T17:14:45.433Z,67.30
2022-11-10T17:17:37.097Z,67.60
2022-11-10T17:20:33.221Z,67.80
2022-11-10T17:23:24.751Z,68.20
2022-11-10T17:26:14.251Z,68.30
2022-11-10T17:29:02.160Z,68.30
2022-11-10T17:31:50.566Z,68.50
2022-11-10T17:34:39.672Z,68.60
2022-11-10T17:37:27.238Z,69.30
2022-11-10T17:40:20.427Z,68.80
2022-11-10T17:43:07.762Z,69.00
2022-11-10T17:45:55.341Z,69.10
2022-11-10T17:48:42.683Z,69.20
2022-11-10T17:51:34.772Z,69.40
2022-11-10T17:54:22.361Z,69.60
2022-11-10T17:57:11.537Z,69.60
2022-11-10T17:59:58.996Z,69.80
2022-11-10T18:02:52.535Z,69.90
2022-11-10T18:05:42.679Z,70.00
2022-11-10T18:08:31.379Z,70.00
2022-11-10T18:11:21.670Z,69.90
2022-11-10T18:14:10.583Z,69.90
2022-11-10T18:16:57.899Z,69.90
2022-11-10T18:19:45.290Z,69.80
2022-11-10T18:22:32.863Z,69.70
2022-11-10T18:25:22.066Z,69.70
2022-11-10T18:28:09.761Z,69.60
2022-11-10T18:31:00.034Z,69.60
2022-11-10T18:33:49.277Z,69.50
2022-11-10T18:36:36.939Z,69.40
2022-11-10T18:39:24.766Z,70.40
2022-11-10T18:42:13.609Z,70.40
2022-11-10T18:45:01.126Z,70.60
2022-11-10T18:47:48.471Z,70.50
2022-11-10T18:50:39.000Z,70.50
2022-11-10T18:53:26.999Z,70.50
2022-11-10T18:56:14.648Z,70.50
2022-11-10T18:59:03.951Z,70.60
2022-11-10T19:01:51.611Z,70.70
2022-11-10T19:04:38.883Z,70.90
2022-11-10T19:07:26.367Z,70.90
2022-11-10T19:10:13.988Z,71.00
2022-11-10T19:13:01.529Z,71.00
2022-11-10T19:15:50.416Z,71.20
2022-11-10T19:18:38.901Z,71.50
2022-11-10T19:21:27.985Z,71.60
2022-11-10T19:24:25.878Z,71.80
2022-11-10T19:27:15.273Z,71.90
2022-11-10T19:30:04.359Z,71.90
2022-11-10T19:32:53.393Z,71.90
2022-11-10T19:35:43.402Z,72.00
2022-11-10T19:38:31.081Z,72.30
2022-11-10T19:41:24.193Z,72.50
2022-11-10T19:44:11.943Z,72.90
2022-11-10T19:47:00.634Z,73.10
2022-11-10T19:49:51.542Z,73.40
2022-11-10T19:52:39.437Z,73.60
2022-11-10T19:55:26.951Z,73.70
2022-11-10T19:58:14.109Z,73.60
2022-11-10T20:01:02.261Z,73.70
2022-11-10T20:03:49.787Z,73.80
2022-11-10T20:06:38.673Z,73.90
2022-11-10T20:09:26.145Z,73.80
2022-11-10T20:12:13.796Z,73.80
2022-11-10T20:15:01.139Z,73.70
2022-11-10T20:17:48.685Z,73.50
2022-11-10T20:20:36.602Z,73.60
2022-11-10T20:23:25.494Z,73.60
2022-11-10T20:26:15.031Z,73.60
2022-11-10T20:29:02.203Z,73.20
2022-11-10T20:31:49.545Z,72.70
2022-11-10T20:34:36.835Z,73.10
2022-11-10T20:37:24.198Z,73.70
2022-11-10T20:40:42.406Z,74.20
2022-11-10T20:43:21.567Z,74.40
2022-11-10T20:46:18.993Z,73.80
2022-11-10T20:49:21.331Z,73.70
2022-11-10T20:52:09.009Z,73.60
2022-11-10T20:54:56.394Z,73.70
2022-11-10T20:57:45.306Z,74.10
2022-11-10T21:00:32.508Z,74.30
2022-11-10T21:03:19.990Z,74.60
2022-11-10T21:06:08.573Z,74.80
2022-11-10T21:08:57.190Z,74.80
2022-11-10T21:12:01.966Z,74.40
2022-11-10T21:14:51.123Z,74.50
2022-11-10T21:17:43.849Z,74.50
2022-11-10T21:20:33.680Z,74.80
2022-11-10T21:23:21.484Z,75.10
2022-11-10T21:26:09.467Z,75.40
2022-11-10T21:28:57.960Z,75.60
2022-11-10T21:31:47.001Z,76.00
2022-11-10T21:34:34.155Z,76.10
2022-11-10T21:37:21.428Z,76.30
2022-11-10T21:40:09.624Z,76.70
2022-11-10T21:42:57.282Z,77.00
2022-11-10T21:45:44.845Z,77.40
2022-11-10T21:48:34.142Z,77.70
2022-11-10T21:51:21.313Z,78.60
2022-11-10T21:54:10.675Z,78.10
2022-11-10T21:56:58.216Z,78.30
2022-11-10T21:59:45.529Z,78.40
2022-11-10T22:02:32.792Z,78.40
2022-11-10T22:05:21.799Z,78.40
2022-11-10T22:08:09.417Z,78.30
2022-11-10T22:11:13.910Z,78.20
2022-11-10T22:14:18.495Z,78.00
2022-11-10T22:17:29.351Z,78.30
2022-11-10T22:20:17.326Z,78.50
2022-11-10T22:23:06.401Z,78.60
2022-11-10T22:25:53.915Z,79.00
2022-11-10T22:28:41.668Z,79.20
2022-11-10T22:31:29.412Z,79.50
2022-11-10T22:34:16.907Z,79.70
2022-11-10T22:37:04.458Z,80.00
2022-11-10T22:40:10.620Z,80.10
2022-11-10T22:43:15.392Z,80.10
2022-11-10T22:46:03.132Z,80.10
2022-11-10T22:48:50.434Z,80.30
2022-11-10T22:51:38.964Z,80.30
2022-11-10T22:54:26.342Z,80.60
2022-11-10T22:57:15.310Z,80.80
2022-11-10T23:00:02.696Z,81.10
2022-11-10T23:02:50.191Z,81.40
2022-11-10T23:05:38.036Z,81.60
2022-11-10T23:08:25.780Z,81.80
2022-11-10T23:11:15.516Z,82.10
2022-11-10T23:14:04.429Z,82.30
2022-11-10T23:16:52.079Z,82.50
2022-11-10T23:19:39.346Z,82.50
2022-11-10T23:22:26.650Z,82.60
2022-11-10T23:25:14.767Z,82.70
2022-11-10T23:28:02.066Z,82.70
2022-11-10T23:30:51.028Z,82.70
2022-11-10T23:33:39.506Z,82.60
2022-11-10T23:36:28.804Z,82.70
2022-11-10T23:39:16.301Z,82.70
2022-11-10T23:42:03.612Z,82.70
2022-11-10T23:44:50.922Z,82.70
2022-11-10T23:47:39.853Z,82.70
2022-11-10T23:50:27.463Z,82.70
2022-11-10T23:53:15.740Z,82.60
2022-11-10T23:56:04.785Z,82.70
2022-11-10T23:58:52.436Z,82.90
